createdAt,value
2019-04-01T00:01:17.072Z,14.78
2019-04-01T00:03:46.365Z,14.58
2019-04-01T00:06:16.198Z,14.63
2019-04-01T00:08:45.408Z,14.68
2019-04-01T00:11:14.708Z,14.60
2019-04-01T00:13:44.414Z,14.34
2019-04-01T00:16:13.661Z,14.60
2019-04-01T00:18:42.924Z,14.65
2019-04-01T00:21:12.198Z,14.65
2019-04-01T00:23:41.479Z,14.69
2019-04-01T00:26:10.732Z,14.37
2019-04-01T00:28:40.474Z,14.36
2019-04-01T00:31:09.711Z,14.03
2019-04-01T00:33:38.983Z,13.89
2019-04-01T00:36:08.796Z,14.05
2019-04-01T00:38:38.003Z,14.10
2019-04-01T00:41:07.214Z,14.13
2019-04-01T00:44:02.635Z,14.29
2019-04-01T00:46:33.074Z,14.10
2019-04-01T00:49:02.919Z,14.34
2019-04-01T00:51:32.255Z,14.19
2019-04-01T00:54:03.543Z,14.18
2019-04-01T00:56:33.359Z,13.98
2019-04-01T00:59:02.639Z,14.19
2019-04-01T01:01:32.291Z,14.14
2019-04-01T01:04:04.365Z,14.28
2019-04-01T01:06:33.660Z,14.03
2019-04-01T01:09:04.799Z,14.21
2019-04-01T01:11:34.044Z,14.29
2019-04-01T01:14:04.946Z,14.24
2019-04-01T01:16:34.624Z,14.23
2019-04-01T01:19:03.897Z,14.08
2019-04-01T01:21:34.523Z,14.02
2019-04-01T01:24:05.170Z,14.28
2019-04-01T01:26:34.428Z,14.04
2019-04-01T01:29:03.713Z,14.22
2019-04-01T01:31:33.278Z,14.20
2019-04-01T01:34:05.625Z,13.77
2019-04-01T01:36:35.124Z,13.72
2019-04-01T01:39:06.208Z,13.78
2019-04-01T01:41:35.920Z,13.58
2019-04-01T01:44:05.773Z,13.54
2019-04-01T01:46:35.434Z,13.34
2019-04-01T01:49:04.777Z,13.75
2019-04-01T01:51:34.053Z,13.71
2019-04-01T01:54:06.854Z,13.67
2019-04-01T01:56:36.083Z,13.57
2019-04-01T01:59:06.409Z,13.55
2019-04-01T02:01:35.972Z,13.73
2019-04-01T02:04:06.330Z,13.80
2019-04-01T02:06:35.601Z,13.53
2019-04-01T02:09:06.192Z,13.49
2019-04-01T02:11:35.414Z,13.35
2019-04-01T02:14:07.670Z,13.36
2019-04-01T02:16:37.168Z,13.27
2019-04-01T02:19:06.416Z,13.11
2019-04-01T02:21:35.698Z,13.36
2019-04-01T02:24:07.993Z,13.10
2019-04-01T02:26:37.244Z,13.01
2019-04-01T02:29:06.506Z,13.06
2019-04-01T02:31:36.100Z,12.99
2019-04-01T02:34:05.939Z,12.76
2019-04-01T02:36:35.224Z,12.90
2019-04-01T02:39:06.586Z,12.41
2019-04-01T02:41:35.827Z,12.62
2019-04-01T02:44:07.386Z,12.68
2019-04-01T02:46:37.015Z,12.81
2019-04-01T02:49:06.244Z,12.76
2019-04-01T02:51:35.537Z,12.69
2019-04-01T02:54:06.104Z,12.79
2019-04-01T02:56:35.384Z,12.87
2019-04-01T02:59:04.689Z,12.43
2019-04-01T03:01:35.144Z,12.37
2019-04-01T03:04:05.142Z,12.38
2019-04-01T03:06:34.491Z,12.60
2019-04-01T03:09:05.865Z,12.62
2019-04-01T03:11:35.116Z,12.26
2019-04-01T03:14:06.210Z,12.23
2019-04-01T03:16:35.819Z,12.25
2019-04-01T03:19:05.100Z,12.37
2019-04-01T03:21:34.375Z,11.95
2019-04-01T03:24:05.897Z,11.73
2019-04-01T03:26:35.110Z,11.77
2019-04-01T03:29:04.847Z,11.88
2019-04-01T03:31:34.137Z,12.12
2019-04-01T03:34:06.375Z,11.64
2019-04-01T03:36:35.998Z,11.87
2019-04-01T03:39:07.046Z,11.69
2019-04-01T03:41:36.370Z,11.58
2019-04-01T03:44:08.869Z,11.53
2019-04-01T03:46:38.096Z,11.74
2019-04-01T03:49:07.806Z,11.66
2019-04-01T03:51:37.086Z,11.51
2019-04-01T03:54:06.363Z,11.58
2019-04-01T03:56:35.888Z,11.43
2019-04-01T03:59:05.198Z,11.47
2019-04-01T04:01:34.456Z,11.67
2019-04-01T04:04:04.612Z,11.43
2019-04-01T04:06:33.926Z,11.50
2019-04-01T04:09:04.826Z,11.27
2019-04-01T04:11:34.373Z,11.17
2019-04-01T04:14:04.255Z,11.15
2019-04-01T04:16:33.499Z,11.32
2019-04-01T04:19:03.178Z,11.45
2019-04-01T04:21:32.511Z,11.52
2019-04-01T04:24:04.985Z,11.07
2019-04-01T04:26:35.196Z,11.13
2019-04-01T04:29:04.484Z,11.24
2019-04-01T04:31:33.718Z,11.12
2019-04-01T04:34:04.404Z,11.27
2019-04-01T04:36:33.682Z,11.36
2019-04-01T04:39:04.855Z,11.44
2019-04-01T04:41:34.390Z,11.40
2019-04-01T04:44:05.956Z,11.28
2019-04-01T04:46:35.256Z,11.26
2019-04-01T04:49:04.983Z,11.46
2019-04-01T04:51:34.325Z,11.34
2019-04-01T04:54:04.048Z,11.41
2019-04-01T04:56:33.765Z,11.33
2019-04-01T04:59:03.034Z,10.96
2019-04-01T05:01:32.279Z,11.17
2019-04-01T05:04:02.929Z,10.95
2019-04-01T05:06:33.108Z,11.28
2019-04-01T05:09:02.370Z,10.93
2019-04-01T05:11:31.981Z,10.84
2019-04-01T05:14:01.273Z,10.92
2019-04-01T05:16:30.540Z,11.07
2019-04-01T05:19:00.079Z,10.72
2019-04-01T05:21:29.328Z,10.66
2019-04-01T05:23:58.821Z,10.90
2019-04-01T05:26:29.206Z,11.06
2019-04-01T05:28:59.533Z,10.89
2019-04-01T05:31:30.010Z,11.10
2019-04-01T05:34:01.395Z,11.04
2019-04-01T05:36:31.618Z,11.03
2019-04-01T05:39:01.017Z,10.81
2019-04-01T05:41:30.724Z,10.90
2019-04-01T05:44:02.261Z,11.07
2019-04-01T05:46:31.569Z,11.06
2019-04-01T05:51:23.621Z,11.61
2019-04-01T05:53:55.145Z,11.76
2019-04-01T05:56:25.841Z,11.54
2019-04-01T05:58:55.143Z,11.77
2019-04-01T06:01:33.559Z,11.84
2019-04-01T06:04:04.461Z,11.93
2019-04-01T06:06:33.843Z,11.69
2019-04-01T06:09:06.739Z,11.78
2019-04-01T06:11:36.247Z,11.85
2019-04-01T06:14:08.016Z,12.08
2019-04-01T06:16:37.726Z,11.99
2019-04-01T06:19:07.024Z,11.58
2019-04-01T06:21:36.513Z,11.78
2019-04-01T06:24:09.395Z,12.14
2019-04-01T06:26:38.674Z,11.83
2019-04-01T06:29:07.899Z,12.11
2019-04-01T06:31:37.586Z,11.98
2019-04-01T06:34:06.872Z,12.23
2019-04-01T06:36:38.864Z,12.33
2019-04-01T06:39:07.762Z,12.59
2019-04-01T06:41:37.351Z,12.68
2019-04-01T06:44:06.842Z,12.73
2019-04-01T06:46:36.487Z,12.82
2019-04-01T06:49:05.945Z,12.84
2019-04-01T06:51:35.183Z,13.06
2019-04-01T06:54:05.592Z,12.93
2019-04-01T06:56:34.963Z,13.12
2019-04-01T06:59:04.319Z,12.99
2019-04-01T07:01:34.380Z,13.04
2019-04-01T07:04:04.708Z,13.16
2019-04-01T07:06:34.261Z,13.00
2019-04-01T07:09:06.266Z,13.17
2019-04-01T07:11:35.826Z,13.26
2019-04-01T07:14:06.267Z,13.47
2019-04-01T07:16:35.641Z,13.64
2019-04-01T07:19:04.944Z,13.55
2019-04-01T07:21:34.576Z,13.90
2019-04-01T07:24:05.084Z,13.80
2019-04-01T07:26:35.014Z,13.79
2019-04-01T07:29:05.223Z,13.89
2019-04-01T07:31:34.637Z,13.82
2019-04-01T07:34:04.938Z,13.76
2019-04-01T07:36:35.063Z,14.02
2019-04-01T07:39:06.274Z,13.97
2019-04-01T07:41:35.689Z,14.09
2019-04-01T07:44:06.406Z,14.16
2019-04-01T07:46:38.431Z,14.26
2019-04-01T07:49:07.868Z,14.25
2019-04-01T07:51:38.686Z,14.19
2019-04-01T07:54:08.399Z,14.36
2019-04-01T07:56:37.960Z,14.33
2019-04-01T07:59:07.858Z,14.49
2019-04-01T08:01:37.382Z,14.39
2019-04-01T08:04:06.654Z,14.63
2019-04-01T08:06:36.359Z,14.76
2019-04-01T08:09:06.676Z,14.73
2019-04-01T08:11:36.371Z,14.73
2019-04-01T08:14:07.162Z,14.80
2019-04-01T08:16:36.413Z,14.58
2019-04-01T08:19:05.884Z,14.87
2019-04-01T08:21:35.491Z,14.85
2019-04-01T08:24:07.736Z,15.01
2019-04-01T08:26:36.983Z,15.05
2019-04-01T08:29:06.330Z,15.05
2019-04-01T08:31:35.612Z,15.23
2019-04-01T08:34:06.428Z,15.07
2019-04-01T08:36:35.668Z,15.26
2019-04-01T08:39:09.367Z,15.40
2019-04-01T08:41:38.789Z,15.48
2019-04-01T08:44:08.072Z,15.48
2019-04-01T08:46:37.759Z,15.69
2019-04-01T08:49:08.014Z,15.70
2019-04-01T08:51:37.694Z,15.57
2019-04-01T08:54:07.095Z,15.79
2019-04-01T08:56:37.985Z,15.72
2019-04-01T08:59:08.119Z,15.91
2019-04-01T09:01:37.381Z,16.04
2019-04-01T09:04:06.681Z,16.16
2019-04-01T09:06:36.401Z,16.17
2019-04-01T09:09:07.329Z,16.28
2019-04-01T09:11:38.594Z,16.19
2019-04-01T09:14:08.023Z,16.06
2019-04-01T09:16:38.831Z,16.28
2019-04-01T09:19:08.137Z,16.38
2019-04-01T09:21:37.916Z,16.61
2019-04-01T09:24:07.155Z,16.48
2019-04-01T09:26:36.453Z,16.59
2019-04-01T09:29:06.370Z,16.46
2019-04-01T09:31:35.634Z,16.87
2019-04-01T09:34:07.942Z,16.89
2019-04-01T09:36:37.674Z,16.75
2019-04-01T09:39:07.608Z,17.00
2019-04-01T09:41:36.910Z,17.21
2019-04-01T09:44:06.518Z,17.40
2019-04-01T09:46:35.781Z,17.60
2019-04-01T09:49:05.201Z,17.46
2019-04-01T09:51:47.872Z,17.93
2019-04-01T09:54:08.520Z,18.02
2019-04-01T09:56:37.815Z,18.33
2019-04-01T09:59:07.056Z,18.40
2019-04-01T10:01:36.438Z,18.38
2019-04-01T10:04:09.184Z,18.59
2019-04-01T10:06:38.443Z,18.81
2019-04-01T10:09:08.992Z,18.81
2019-04-01T10:11:38.674Z,19.20
2019-04-01T10:14:08.025Z,19.23
2019-04-01T10:16:37.310Z,19.36
2019-04-01T10:19:07.093Z,19.56
2019-04-01T10:21:36.365Z,19.87
2019-04-01T10:24:08.737Z,20.07
2019-04-01T10:26:38.440Z,20.28
2019-04-01T10:29:07.702Z,19.83
2019-04-01T10:31:37.020Z,20.27
2019-04-01T10:34:06.743Z,20.17
2019-04-01T10:36:35.985Z,20.16
2019-04-01T10:39:07.506Z,20.48
2019-04-01T10:41:37.261Z,20.82
2019-04-01T10:44:09.585Z,20.90
2019-04-01T10:46:40.753Z,21.22
2019-04-01T10:49:10.312Z,21.51
2019-04-01T10:51:39.534Z,21.60
2019-04-01T10:54:08.967Z,21.74
2019-04-01T10:56:38.658Z,21.77
2019-04-01T10:59:07.943Z,21.93
2019-04-01T11:01:37.728Z,22.03
2019-04-01T11:04:07.456Z,22.10
2019-04-01T11:06:36.977Z,22.20
2019-04-01T11:09:10.239Z,22.34
2019-04-01T11:11:40.056Z,22.39
2019-04-01T11:14:09.318Z,22.66
2019-04-01T11:16:38.737Z,22.67
2019-04-01T11:19:10.005Z,22.95
2019-04-01T11:21:39.422Z,23.32
2019-04-01T11:24:08.697Z,23.39
2019-04-01T11:26:38.230Z,23.40
2019-04-01T11:29:07.492Z,23.39
2019-04-01T11:31:37.198Z,23.87
2019-04-01T11:34:06.549Z,24.05
2019-04-01T11:36:35.823Z,24.03
2019-04-01T11:39:08.116Z,24.33
2019-04-01T11:41:37.429Z,24.46
2019-04-01T11:44:07.022Z,24.74
2019-04-01T11:46:36.720Z,24.82
2019-04-01T11:49:06.012Z,24.91
2019-04-01T11:51:39.804Z,25.06
2019-04-01T11:54:08.140Z,25.08
2019-04-01T11:56:37.281Z,25.28
2019-04-01T11:59:08.353Z,25.53
2019-04-01T12:01:37.749Z,25.80
2019-04-01T12:04:07.057Z,25.96
2019-04-01T12:06:36.853Z,26.24
2019-04-01T12:09:09.002Z,26.39
2019-04-01T12:11:38.316Z,26.31
2019-04-01T12:14:07.914Z,26.39
2019-04-01T12:16:37.240Z,26.43
2019-04-01T12:19:06.564Z,26.50
2019-04-01T12:21:37.658Z,26.75
2019-04-01T12:24:07.239Z,26.87
2019-04-01T12:26:36.517Z,27.20
2019-04-01T12:29:06.224Z,27.35
2019-04-01T12:31:35.512Z,27.63
2019-04-01T12:34:07.292Z,27.99
2019-04-01T12:36:37.203Z,28.38
2019-04-01T12:39:07.836Z,28.60
2019-04-01T12:41:37.269Z,28.80
2019-04-01T12:44:07.052Z,29.16
2019-04-01T12:46:36.420Z,29.51
2019-04-01T12:49:05.747Z,29.56
2019-04-01T12:51:35.454Z,30.09
2019-04-01T12:54:06.163Z,30.13
2019-04-01T12:56:35.415Z,29.97
2019-04-01T12:59:05.403Z,30.34
2019-04-01T13:01:35.013Z,30.74
2019-04-01T13:04:08.113Z,31.02
2019-04-01T13:06:37.894Z,31.25
2019-04-01T13:09:08.818Z,31.39
2019-04-01T13:11:38.825Z,31.78
2019-04-01T13:14:08.791Z,31.85
2019-04-01T13:16:38.939Z,31.49
2019-04-01T13:19:08.601Z,31.86
2019-04-01T13:21:39.918Z,32.60
2019-04-01T13:24:09.696Z,32.59
2019-04-01T13:26:40.072Z,33.08
2019-04-01T13:29:09.473Z,33.31
2019-04-01T13:31:38.811Z,33.63
2019-04-01T13:34:08.624Z,33.49
2019-04-01T13:36:38.293Z,33.77
2019-04-01T13:39:08.841Z,33.92
2019-04-01T13:41:42.666Z,34.08
2019-04-01T13:44:09.628Z,34.24
2019-04-01T13:46:39.012Z,34.62
2019-04-01T13:49:08.658Z,35.14
2019-04-01T13:51:37.892Z,35.27
2019-04-01T13:54:09.217Z,35.05
2019-04-01T13:56:39.220Z,35.56
2019-04-01T13:59:09.870Z,35.59
2019-04-01T14:04:20.153Z,36.07
2019-04-01T14:06:49.834Z,36.92
2019-04-01T14:09:20.760Z,36.73
2019-04-01T14:11:50.667Z,37.06
2019-04-01T14:14:19.987Z,37.71
2019-04-01T14:16:49.281Z,38.09
2019-04-01T14:19:18.664Z,38.44
2019-04-01T14:21:48.024Z,38.89
2019-04-01T14:24:17.349Z,38.81
2019-04-01T14:26:47.137Z,37.70
2019-04-01T14:29:16.855Z,38.04
2019-04-01T14:31:46.233Z,37.66
2019-04-01T14:34:22.797Z,37.25
2019-04-01T14:36:47.712Z,37.94
2019-04-01T14:39:17.842Z,38.28
2019-04-01T14:41:48.086Z,38.69
2019-04-01T14:44:17.516Z,38.71
2019-04-01T14:46:46.941Z,39.11
2019-04-01T14:49:16.936Z,38.78
2019-04-01T14:51:46.374Z,37.69
2019-04-01T14:54:15.737Z,36.61
2019-04-01T14:56:45.374Z,35.14
2019-04-01T14:59:14.746Z,33.78
2019-04-01T15:01:44.043Z,32.33
2019-04-01T15:04:14.105Z,31.77
2019-04-01T15:06:46.327Z,30.17
2019-04-01T15:09:17.308Z,29.54
2019-04-01T15:11:47.500Z,29.26
2019-04-01T15:14:17.050Z,29.71
2019-04-01T15:16:46.765Z,30.25
2019-04-01T15:19:16.818Z,31.44
2019-04-01T15:21:47.519Z,32.33
2019-04-01T15:24:17.225Z,32.59
2019-04-01T15:26:47.361Z,33.07
2019-04-01T15:29:16.991Z,33.38
2019-04-01T15:31:47.628Z,34.06
2019-04-01T15:34:18.633Z,33.87
2019-04-01T15:36:49.184Z,33.11
2019-04-01T15:39:19.823Z,33.52
2019-04-01T15:41:52.606Z,32.94
2019-04-01T15:44:22.327Z,31.87
2019-04-01T15:46:52.403Z,31.87
2019-04-01T15:49:22.092Z,31.90
2019-04-01T15:51:52.012Z,29.65
2019-04-01T15:54:22.108Z,29.05
2019-04-01T15:56:51.839Z,28.46
2019-04-01T15:59:27.633Z,28.05
2019-04-01T16:02:03.944Z,26.97
2019-04-01T16:04:33.204Z,26.59
2019-04-01T16:07:04.144Z,25.91
2019-04-01T16:09:34.266Z,25.49
2019-04-01T16:12:06.194Z,25.42
2019-04-01T16:14:36.561Z,25.31
2019-04-01T16:17:06.298Z,25.09
2019-04-01T16:19:36.019Z,24.31
2019-04-01T16:22:06.746Z,23.90
2019-04-01T16:24:36.630Z,23.89
2019-04-01T16:27:06.595Z,23.81
2019-04-01T16:29:36.474Z,24.19
2019-04-01T16:32:09.050Z,24.16
2019-04-01T16:34:42.136Z,24.39
2019-04-01T16:37:11.669Z,24.51
2019-04-01T16:39:41.387Z,24.91
2019-04-01T16:42:10.982Z,25.08
2019-04-01T16:44:40.945Z,24.52
2019-04-01T16:47:14.278Z,24.03
2019-04-01T16:49:42.661Z,23.99
2019-04-01T16:52:15.429Z,23.78
2019-04-01T16:54:48.103Z,23.86
2019-04-01T16:57:18.007Z,23.48
2019-04-01T16:59:47.715Z,23.09
2019-04-01T17:02:18.555Z,22.74
2019-04-01T17:04:48.814Z,22.31
2019-04-01T17:07:20.201Z,22.29
2019-04-01T17:09:50.724Z,21.99
2019-04-01T17:12:20.924Z,21.90
2019-04-01T17:14:50.683Z,21.64
2019-04-01T17:17:21.743Z,21.67
2019-04-01T17:19:51.951Z,21.43
2019-04-01T17:22:26.420Z,21.32
2019-04-01T17:24:57.435Z,21.30
2019-04-01T17:27:27.543Z,21.13
2019-04-01T17:29:57.953Z,21.24
2019-04-01T17:32:27.988Z,21.03
2019-04-01T17:34:58.105Z,21.17
2019-04-01T17:37:29.145Z,21.07
2019-04-01T17:39:59.015Z,20.92
2019-04-01T17:42:28.886Z,20.69
2019-04-01T17:45:00.470Z,20.58
2019-04-01T17:47:30.347Z,20.60
2019-04-01T17:50:00.548Z,20.38
2019-04-01T17:52:30.986Z,20.26
2019-04-01T17:55:00.808Z,20.29
2019-04-01T17:57:31.190Z,20.27
2019-04-01T18:02:28.834Z,20.41
2019-04-01T18:05:00.131Z,20.21
2019-04-01T18:07:30.231Z,20.30
2019-04-01T18:10:00.343Z,20.15
2019-04-01T18:12:30.418Z,20.01
2019-04-01T18:15:00.352Z,20.09
2019-04-01T18:17:30.423Z,19.99
2019-04-01T18:20:00.546Z,20.05
2019-04-01T18:22:30.293Z,20.21
2019-04-01T18:25:00.157Z,20.09
2019-04-01T18:27:31.369Z,20.23
2019-04-01T18:30:01.114Z,20.26
2019-04-01T18:32:31.263Z,20.53
2019-04-01T18:35:04.024Z,20.58
2019-04-01T18:37:33.355Z,20.39
2019-04-01T18:40:06.453Z,20.21
2019-04-01T18:42:36.670Z,20.09
2019-04-01T18:45:07.221Z,19.89
2019-04-01T18:47:38.935Z,19.82
2019-04-01T18:50:09.174Z,19.70
2019-04-01T18:52:38.994Z,19.66
2019-04-01T18:55:09.086Z,19.78
2019-04-01T18:57:40.294Z,19.61
2019-04-01T19:00:12.374Z,19.55
2019-04-01T19:02:42.765Z,19.44
2019-04-01T19:05:13.021Z,19.26
2019-04-01T19:07:43.057Z,19.25
2019-04-01T19:10:13.537Z,19.04
2019-04-01T19:12:45.565Z,19.17
2019-04-01T19:15:15.542Z,19.03
2019-04-01T19:17:45.692Z,19.30
2019-04-01T19:20:15.713Z,18.93
2019-04-01T19:22:45.443Z,18.97
2019-04-01T19:25:16.063Z,18.95
2019-04-01T19:27:45.927Z,19.00
2019-04-01T19:32:50.169Z,18.99
2019-04-01T19:35:20.364Z,18.98
2019-04-01T19:37:50.061Z,18.56
2019-04-01T19:42:51.317Z,18.88
2019-04-01T19:45:22.018Z,18.91
2019-04-01T19:47:52.317Z,18.78
2019-04-01T19:50:22.183Z,18.77
2019-04-01T19:52:51.887Z,18.87
2019-04-01T19:55:23.098Z,18.66
2019-04-01T19:57:53.819Z,18.61
2019-04-01T20:00:28.094Z,18.58
2019-04-01T20:02:56.583Z,18.75
2019-04-01T20:05:26.695Z,18.48
2019-04-01T20:07:57.058Z,18.78
2019-04-01T20:10:28.358Z,18.97
2019-04-01T20:12:58.185Z,18.92
2019-04-01T20:15:28.351Z,18.59
2019-04-01T20:17:58.050Z,18.84
2019-04-01T20:20:27.922Z,18.75
2019-04-01T20:22:58.335Z,18.64
2019-04-01T20:25:28.098Z,18.29
2019-04-01T20:27:59.401Z,18.31
2019-04-01T20:30:37.944Z,18.41
2019-04-01T20:33:17.538Z,18.19
2019-04-01T20:35:47.875Z,18.15
2019-04-01T20:38:19.170Z,18.00
2019-04-01T20:40:52.196Z,18.04
2019-04-01T20:43:23.642Z,17.83
2019-04-01T20:45:58.319Z,17.93
2019-04-01T20:48:29.607Z,17.76
2019-04-01T20:50:59.895Z,18.16
2019-04-01T20:53:29.600Z,17.95
2019-04-01T20:55:59.535Z,17.82
2019-04-01T20:58:30.080Z,17.98
2019-04-01T21:00:59.724Z,18.09
2019-04-01T21:03:30.668Z,18.13
2019-04-01T21:06:05.372Z,17.94
2019-04-01T21:08:41.354Z,18.07
2019-04-01T21:11:11.594Z,17.94
2019-04-01T21:13:41.063Z,17.78
2019-04-01T21:16:10.377Z,17.91
2019-04-01T21:18:40.093Z,18.19
2019-04-01T21:21:10.450Z,17.88
2019-04-01T21:23:39.897Z,17.91
2019-04-01T21:26:09.869Z,18.17
2019-04-01T21:28:39.429Z,17.95
2019-04-01T21:31:09.058Z,18.12
2019-04-01T21:33:38.627Z,18.11
2019-04-01T21:36:07.891Z,17.81
2019-04-01T21:38:37.174Z,18.04
2019-04-01T21:41:06.883Z,17.93
2019-04-01T21:43:36.132Z,17.59
2019-04-01T21:46:08.520Z,17.66
2019-04-01T21:48:39.294Z,17.78
2019-04-01T21:51:08.938Z,17.58
2019-04-01T21:53:38.242Z,17.44
2019-04-01T21:56:07.847Z,17.38
2019-04-01T21:58:37.210Z,17.31
2019-04-01T22:01:06.540Z,17.39
2019-04-01T22:03:36.879Z,17.31
2019-04-01T22:06:09.185Z,17.14
2019-04-01T22:08:38.450Z,17.35
2019-04-01T22:11:08.119Z,17.27
2019-04-01T22:13:37.370Z,17.22
2019-04-01T22:16:09.669Z,17.40
2019-04-01T22:18:39.343Z,17.40
2019-04-01T22:21:08.983Z,17.38
2019-04-01T22:23:38.296Z,17.43
2019-04-01T22:26:07.929Z,17.65
2019-04-01T22:28:37.218Z,17.69
2019-04-01T22:31:06.596Z,17.45
2019-04-01T22:33:36.358Z,17.53
2019-04-01T22:36:08.631Z,17.58
2019-04-01T22:38:37.935Z,17.40
2019-04-01T22:41:07.589Z,17.63
2019-04-01T22:43:36.891Z,17.65
2019-04-01T22:46:10.014Z,17.48
2019-04-01T22:48:40.782Z,17.39
2019-04-01T22:51:10.937Z,17.19
2019-04-01T22:53:40.222Z,17.01
2019-04-01T22:56:09.776Z,16.84
2019-04-01T22:58:39.022Z,17.04
2019-04-01T23:01:08.762Z,17.18
2019-04-01T23:03:40.877Z,17.12
2019-04-01T23:06:10.517Z,17.28
2019-04-01T23:08:39.790Z,17.23
2019-04-01T23:11:09.376Z,17.22
2019-04-01T23:13:38.593Z,17.39
2019-04-01T23:16:07.875Z,17.42
2019-04-01T23:18:41.572Z,17.25
2019-04-01T23:21:11.004Z,17.18
2019-04-01T23:23:40.231Z,17.17
2019-04-01T23:26:10.091Z,17.21
2019-04-01T23:28:39.300Z,17.09
2019-04-01T23:31:08.534Z,17.00
2019-04-01T23:33:38.125Z,17.04
2019-04-01T23:36:07.375Z,17.01
2019-04-01T23:38:36.708Z,16.87
2019-04-01T23:41:06.205Z,17.11
2019-04-01T23:43:35.465Z,17.09
2019-04-01T23:46:05.679Z,16.96
2019-04-01T23:48:35.319Z,17.14
2019-04-01T23:51:04.616Z,17.00
2019-04-01T23:53:34.690Z,16.82
2019-04-01T23:56:06.586Z,16.93
2019-04-01T23:58:35.843Z,16.86
